Milwaukee, Wisconsin
Traffic Map
Current Weather Conditions
Milwaukee, Wisconsin
Broken Clouds
Broken Clouds
12°
Feels Like: 12°
Wind Chill: 12° Ceiling: 1900
Heat Index: 12° Visibility: 10mi
Dew Point: Wind: 13mph
Humidity: 72% Direction: 20° (NNE)
Pressure: 30.07in Gusts: 0mph
Raw Report DataKMKE 301752Z 02011KT 10SM BKN019 12/07 A3007 RMK AO2 SLP186 T01220072 10122 20078 56002
Traffic Incident Summary
Active as of:
Severity:
Category:
InformationThere was an issue retrieving the traffic information for this location. Please try a different location or try again shortly.
Advertisements
Track Severe Weather on mobile